createdAt,value
2022-12-18T00:01:17.343Z,20.00
2022-12-18T00:03:45.851Z,19.17
2022-12-18T00:06:14.832Z,26.63
2022-12-18T00:08:44.160Z,21.90
2022-12-18T00:11:14.896Z,23.20
2022-12-18T00:13:42.948Z,21.90
2022-12-18T00:16:12.104Z,20.27
2022-12-18T00:18:40.681Z,21.70
2022-12-18T00:21:09.707Z,24.80
2022-12-18T00:23:38.528Z,22.90
2022-12-18T00:26:10.414Z,22.13
2022-12-18T00:28:38.305Z,22.53
2022-12-18T00:31:07.280Z,19.17
2022-12-18T00:33:35.367Z,20.00
2022-12-18T00:36:03.625Z,20.33
2022-12-18T00:38:31.509Z,20.73
2022-12-18T00:40:59.417Z,21.47
2022-12-18T00:43:27.699Z,21.07
2022-12-18T00:45:55.647Z,20.90
2022-12-18T00:48:23.778Z,19.50
2022-12-18T00:50:51.763Z,22.93
2022-12-18T00:53:19.666Z,17.67
2022-12-18T00:55:47.519Z,20.87
2022-12-18T00:58:15.986Z,21.27
2022-12-18T01:00:45.370Z,19.00
2022-12-18T01:03:14.974Z,20.03
2022-12-18T01:05:43.042Z,21.13
2022-12-18T01:08:10.993Z,19.30
2022-12-18T01:10:38.875Z,22.30
2022-12-18T01:13:06.787Z,21.70
2022-12-18T01:15:34.647Z,18.97
2022-12-18T01:18:06.242Z,20.63
2022-12-18T01:20:34.143Z,19.77
2022-12-18T01:23:02.051Z,16.23
2022-12-18T01:25:29.957Z,17.17
2022-12-18T01:27:58.029Z,20.10
2022-12-18T01:30:25.919Z,22.73
2022-12-18T01:32:53.822Z,23.73
2022-12-18T01:35:23.126Z,20.77
2022-12-18T01:37:51.018Z,16.53
2022-12-18T01:40:19.040Z,19.53
2022-12-18T01:42:46.931Z,17.87
2022-12-18T01:45:26.467Z,19.67
2022-12-18T01:47:55.592Z,16.07
2022-12-18T01:50:26.399Z,22.40
2022-12-18T01:52:55.292Z,15.53
2022-12-18T01:55:24.514Z,20.17
2022-12-18T01:57:52.485Z,22.17
2022-12-18T02:00:22.183Z,17.77
2022-12-18T02:02:50.230Z,21.57
2022-12-18T02:05:19.923Z,18.93
2022-12-18T02:07:54.592Z,15.10
2022-12-18T02:10:25.390Z,13.73
2022-12-18T02:12:57.253Z,19.67
2022-12-18T02:15:27.396Z,17.17
2022-12-18T02:17:57.439Z,20.20
2022-12-18T02:20:28.367Z,15.90
2022-12-18T02:23:06.756Z,17.97
2022-12-18T02:25:45.862Z,15.37
2022-12-18T02:28:15.810Z,14.30
2022-12-18T02:30:43.735Z,15.80
2022-12-18T02:33:11.660Z,22.03
2022-12-18T02:35:39.554Z,25.97
2022-12-18T02:38:07.417Z,19.27
2022-12-18T02:40:35.288Z,17.77
2022-12-18T02:43:05.580Z,19.67
2022-12-18T02:45:34.911Z,19.40
2022-12-18T02:48:02.923Z,18.23
2022-12-18T02:50:33.856Z,14.70
2022-12-18T02:53:07.116Z,17.00
2022-12-18T02:55:39.962Z,18.37
2022-12-18T02:58:10.455Z,15.43
2022-12-18T03:00:41.299Z,14.77
2022-12-18T03:03:10.766Z,21.20
2022-12-18T03:05:40.904Z,21.67
2022-12-18T03:08:10.054Z,16.93
2022-12-18T03:10:40.249Z,22.77
2022-12-18T03:13:10.014Z,14.07
2022-12-18T03:15:39.747Z,14.90
2022-12-18T03:18:10.795Z,16.87
2022-12-18T03:20:38.700Z,13.40
2022-12-18T03:23:09.801Z,17.03
2022-12-18T03:25:38.189Z,13.77
2022-12-18T03:28:06.214Z,15.07
2022-12-18T03:30:34.144Z,19.70
2022-12-18T03:33:05.504Z,18.50
2022-12-18T03:35:34.109Z,13.93
2022-12-18T03:38:02.008Z,18.80
2022-12-18T03:40:32.281Z,16.60
2022-12-18T03:43:01.739Z,14.17
2022-12-18T03:45:32.651Z,14.90
2022-12-18T03:48:06.163Z,15.60
2022-12-18T03:50:39.068Z,19.97
2022-12-18T03:53:12.879Z,13.13
2022-12-18T03:55:40.768Z,15.63
2022-12-18T03:58:08.696Z,23.47
2022-12-18T04:00:36.576Z,17.17
2022-12-18T04:03:05.892Z,18.03
2022-12-18T04:05:33.861Z,16.70
2022-12-18T04:08:02.094Z,18.80
2022-12-18T04:10:30.081Z,17.73
2022-12-18T04:12:58.017Z,21.97
2022-12-18T04:15:26.043Z,20.30
2022-12-18T04:17:53.994Z,17.17
2022-12-18T04:20:23.238Z,25.03
2022-12-18T04:22:51.155Z,20.93
2022-12-18T04:25:19.421Z,19.63
2022-12-18T04:27:47.256Z,21.20
2022-12-18T04:30:15.219Z,19.80
2022-12-18T04:32:46.524Z,19.50
2022-12-18T04:35:17.111Z,17.20
2022-12-18T04:37:46.673Z,23.27
2022-12-18T04:40:15.494Z,15.70
2022-12-18T04:42:43.602Z,21.83
2022-12-18T04:45:11.885Z,21.53
2022-12-18T04:47:39.752Z,19.77
2022-12-18T04:50:08.548Z,18.43
2022-12-18T04:52:36.427Z,21.20
2022-12-18T04:55:06.219Z,21.20
2022-12-18T04:57:34.186Z,24.50
2022-12-18T05:00:02.061Z,26.57
2022-12-18T05:02:29.970Z,19.13
2022-12-18T05:04:57.882Z,24.77
2022-12-18T05:07:25.768Z,21.50
2022-12-18T05:09:53.668Z,17.13
2022-12-18T05:12:25.692Z,23.80
2022-12-18T05:14:53.547Z,21.17
2022-12-18T05:17:21.404Z,27.70
2022-12-18T05:19:49.280Z,18.83
2022-12-18T05:22:17.246Z,27.83
2022-12-18T05:24:45.338Z,28.00
2022-12-18T05:27:13.223Z,26.97
2022-12-18T05:29:42.523Z,29.87
2022-12-18T05:32:10.424Z,28.07
2022-12-18T05:34:38.317Z,28.17
2022-12-18T05:37:06.221Z,33.20
2022-12-18T05:39:34.145Z,23.10
2022-12-18T05:42:02.033Z,31.30
2022-12-18T05:44:29.931Z,25.10
2022-12-18T05:46:59.379Z,27.57
2022-12-18T05:49:27.488Z,30.27
2022-12-18T05:51:55.422Z,34.43
2022-12-18T05:54:23.315Z,30.07
2022-12-18T05:56:51.159Z,37.23
2022-12-18T05:59:19.092Z,33.10
2022-12-18T06:01:47.103Z,35.93
2022-12-18T06:04:16.518Z,35.40
2022-12-18T06:06:44.480Z,30.67
2022-12-18T06:09:12.914Z,30.33
2022-12-18T06:11:40.813Z,37.77
2022-12-18T06:14:08.940Z,37.63
2022-12-18T06:16:36.936Z,31.57
2022-12-18T06:19:06.074Z,33.13
2022-12-18T06:21:35.656Z,37.67
2022-12-18T06:24:04.243Z,34.60
2022-12-18T06:26:32.108Z,39.83
2022-12-18T06:29:00.038Z,37.30
2022-12-18T06:31:28.121Z,38.67
2022-12-18T06:33:57.097Z,38.13
2022-12-18T06:36:25.006Z,31.07
2022-12-18T06:38:54.269Z,34.33
2022-12-18T06:41:22.832Z,36.67
2022-12-18T06:43:50.769Z,39.97
2022-12-18T06:46:18.758Z,36.13
2022-12-18T06:48:49.258Z,34.70
2022-12-18T06:51:19.251Z,35.30
2022-12-18T06:53:47.149Z,28.30
2022-12-18T06:56:16.440Z,35.97
2022-12-18T06:58:44.654Z,31.97
2022-12-18T07:01:13.109Z,34.10
2022-12-18T07:03:42.193Z,30.17
2022-12-18T07:06:15.542Z,31.80
2022-12-18T07:08:43.455Z,34.03
2022-12-18T07:11:11.332Z,31.97
2022-12-18T07:13:40.872Z,40.63
2022-12-18T07:16:15.972Z,38.60
2022-12-18T07:18:45.271Z,38.53
2022-12-18T07:21:14.112Z,40.80
2022-12-18T07:23:42.547Z,39.90
2022-12-18T07:26:11.934Z,35.90
2022-12-18T07:28:41.836Z,39.37
2022-12-18T07:31:10.824Z,32.53
2022-12-18T07:33:40.204Z,42.40
2022-12-18T07:36:09.154Z,26.83
2022-12-18T07:38:37.364Z,37.87
2022-12-18T07:41:05.867Z,36.17
2022-12-18T07:43:34.765Z,31.53
2022-12-18T07:46:04.118Z,33.30
2022-12-18T07:48:32.086Z,26.23
2022-12-18T07:51:00.567Z,29.63
2022-12-18T07:53:28.616Z,44.60
2022-12-18T07:56:25.499Z,37.47
2022-12-18T07:58:49.326Z,36.30
2022-12-18T08:01:18.883Z,32.47
2022-12-18T08:03:47.045Z,33.20
2022-12-18T08:06:16.104Z,28.20
2022-12-18T08:08:44.110Z,41.07
2022-12-18T08:11:12.085Z,34.27
2022-12-18T08:13:40.325Z,31.43
2022-12-18T08:16:10.109Z,39.30
2022-12-18T08:18:43.194Z,32.77
2022-12-18T08:21:11.457Z,33.43
2022-12-18T08:23:42.651Z,37.13
2022-12-18T08:26:11.454Z,47.40
2022-12-18T08:28:39.602Z,33.27
2022-12-18T08:31:07.864Z,36.07
2022-12-18T08:33:35.921Z,38.37
2022-12-18T08:36:06.049Z,39.10
2022-12-18T08:38:33.953Z,40.00
2022-12-18T08:41:02.200Z,28.57
2022-12-18T08:43:47.446Z,33.73
2022-12-18T08:46:18.099Z,35.30
2022-12-18T08:48:46.062Z,33.83
2022-12-18T08:51:15.390Z,34.17
2022-12-18T08:53:44.078Z,36.23
2022-12-18T08:56:12.129Z,32.70
2022-12-18T08:58:40.056Z,31.97
2022-12-18T09:01:09.915Z,34.20
2022-12-18T09:03:38.247Z,33.57
2022-12-18T09:06:06.914Z,30.53
2022-12-18T09:08:37.568Z,26.10
2022-12-18T09:11:05.835Z,34.77
2022-12-18T09:13:33.726Z,27.20
2022-12-18T09:16:01.706Z,31.20
2022-12-18T09:18:29.611Z,35.07
2022-12-18T09:20:57.514Z,31.87
2022-12-18T09:23:26.226Z,33.17
2022-12-18T09:26:00.443Z,34.47
2022-12-18T09:28:28.343Z,31.63
2022-12-18T09:30:56.336Z,36.73
2022-12-18T09:33:24.263Z,31.07
2022-12-18T09:35:52.359Z,32.70
2022-12-18T09:38:20.912Z,28.27
2022-12-18T09:40:49.936Z,31.33
2022-12-18T09:43:20.604Z,26.00
2022-12-18T09:45:50.085Z,19.53
2022-12-18T09:48:20.129Z,23.00
2022-12-18T09:50:48.046Z,28.83
2022-12-18T09:53:17.911Z,19.63
2022-12-18T09:55:47.342Z,26.13
2022-12-18T09:58:21.556Z,29.20
2022-12-18T10:00:49.547Z,27.23
2022-12-18T10:03:17.534Z,23.83
2022-12-18T10:05:49.138Z,21.30
2022-12-18T10:08:19.979Z,20.53
2022-12-18T10:10:49.463Z,18.70
2022-12-18T10:13:24.124Z,26.10
2022-12-18T10:16:03.809Z,21.47
2022-12-18T10:18:39.555Z,21.30
2022-12-18T10:21:11.412Z,21.20
2022-12-18T10:23:46.573Z,20.37
2022-12-18T10:26:16.463Z,20.47
2022-12-18T10:28:45.955Z,21.37
2022-12-18T10:31:17.021Z,22.30
2022-12-18T10:33:45.008Z,18.73
2022-12-18T10:36:12.896Z,16.80
2022-12-18T10:38:41.068Z,16.13
2022-12-18T10:41:26.968Z,18.13
2022-12-18T10:44:15.100Z,17.20
2022-12-18T10:46:43.107Z,15.30
2022-12-18T10:49:21.111Z,11.70
2022-12-18T10:51:49.042Z,16.50
2022-12-18T10:54:17.591Z,14.27
2022-12-18T10:56:45.549Z,14.60
2022-12-18T10:59:16.583Z,9.00
2022-12-18T11:01:49.276Z,16.77
2022-12-18T11:04:19.843Z,12.40
2022-12-18T11:06:58.954Z,10.93
2022-12-18T11:09:27.845Z,14.43
2022-12-18T11:11:57.054Z,13.47
2022-12-18T11:14:27.261Z,10.70
2022-12-18T11:17:24.343Z,8.13
2022-12-18T11:19:43.331Z,6.17
2022-12-18T11:22:20.979Z,9.17
2022-12-18T11:25:29.665Z,9.10
2022-12-18T11:27:42.977Z,4.80
2022-12-18T11:30:22.503Z,7.97
2022-12-18T11:32:50.571Z,4.87
2022-12-18T11:35:20.427Z,5.00
2022-12-18T11:37:50.604Z,5.93
2022-12-18T11:40:19.879Z,5.37
2022-12-18T11:42:50.953Z,6.13
2022-12-18T11:45:32.049Z,3.17
2022-12-18T11:48:02.665Z,5.93
2022-12-18T11:50:33.824Z,2.60
2022-12-18T11:53:05.891Z,2.63
2022-12-18T11:55:39.609Z,2.90
2022-12-18T11:58:12.020Z,3.37
2022-12-18T12:00:46.971Z,2.60
2022-12-18T12:03:29.773Z,2.57
2022-12-18T12:06:03.476Z,1.67
2022-12-18T12:08:37.527Z,1.70
2022-12-18T12:11:08.832Z,2.00
2022-12-18T12:13:45.699Z,1.63
2022-12-18T12:16:19.120Z,6.67
2022-12-18T12:19:04.089Z,3.47
2022-12-18T12:21:37.817Z,1.30
2022-12-18T12:24:11.419Z,4.03
2022-12-18T12:26:44.178Z,3.73
2022-12-18T12:29:21.409Z,1.50
2022-12-18T12:32:00.778Z,1.47
2022-12-18T12:34:29.137Z,1.60
2022-12-18T12:37:05.432Z,1.83
2022-12-18T12:39:35.183Z,2.20
2022-12-18T12:42:20.784Z,1.37
2022-12-18T12:44:55.763Z,1.73
2022-12-18T12:47:27.764Z,3.30
2022-12-18T12:49:56.101Z,1.50
2022-12-18T12:52:29.923Z,2.80
2022-12-18T12:54:58.177Z,0.80
2022-12-18T12:57:29.337Z,1.37
2022-12-18T13:00:00.471Z,1.33
2022-12-18T13:02:32.363Z,1.33
2022-12-18T13:05:03.406Z,1.40
2022-12-18T13:07:34.285Z,1.00
2022-12-18T13:10:25.678Z,1.30
2022-12-18T13:12:58.233Z,1.40
2022-12-18T13:15:32.369Z,1.37
2022-12-18T13:18:18.434Z,1.27
2022-12-18T13:20:53.151Z,1.40
2022-12-18T13:23:44.141Z,1.10
2022-12-18T13:26:32.268Z,1.00
2022-12-18T13:29:00.357Z,1.57
2022-12-18T13:32:01.473Z,1.70
2022-12-18T13:34:32.003Z,1.93
2022-12-18T13:37:33.398Z,3.60
2022-12-18T13:40:01.337Z,1.30
2022-12-18T13:42:58.441Z,2.00
2022-12-18T13:45:41.464Z,2.40
2022-12-18T13:48:26.302Z,5.27
2022-12-18T13:51:06.211Z,1.40
2022-12-18T13:53:38.222Z,1.77
2022-12-18T13:56:06.530Z,1.27
2022-12-18T13:58:35.352Z,1.50
2022-12-18T14:01:05.710Z,1.83
2022-12-18T14:03:33.811Z,1.03
2022-12-18T14:06:05.679Z,1.93
2022-12-18T14:08:40.753Z,1.20
2022-12-18T14:11:09.140Z,1.30
2022-12-18T14:13:41.239Z,3.13
2022-12-18T14:16:09.811Z,7.30
2022-12-18T14:18:45.793Z,2.67
2022-12-18T14:21:22.366Z,4.60
2022-12-18T14:23:50.269Z,8.40
2022-12-18T14:26:28.226Z,3.60
2022-12-18T14:28:56.433Z,4.83
2022-12-18T14:31:25.266Z,2.57
2022-12-18T14:33:53.676Z,3.40
2022-12-18T14:36:23.462Z,1.33
2022-12-18T14:38:52.385Z,2.27
2022-12-18T14:41:20.877Z,3.60
2022-12-18T14:43:49.859Z,5.50
2022-12-18T14:46:32.208Z,0.70
2022-12-18T14:49:00.208Z,2.30
2022-12-18T14:51:29.857Z,3.20
2022-12-18T14:53:58.699Z,4.50
2022-12-18T14:56:27.436Z,1.00
2022-12-18T14:58:56.884Z,1.90
2022-12-18T15:01:27.673Z,1.47
2022-12-18T15:03:55.876Z,2.23
2022-12-18T15:06:31.237Z,3.23
2022-12-18T15:08:59.584Z,2.37
2022-12-18T15:11:28.926Z,1.63
2022-12-18T15:13:56.945Z,0.90
2022-12-18T15:16:24.983Z,1.40
2022-12-18T15:18:52.954Z,1.40
2022-12-18T15:21:21.400Z,2.60
2022-12-18T15:23:51.992Z,6.00
2022-12-18T15:26:20.977Z,2.30
2022-12-18T15:28:49.797Z,2.53
2022-12-18T15:31:32.906Z,3.20
2022-12-18T15:34:12.032Z,6.23
2022-12-18T15:36:39.990Z,5.87
2022-12-18T15:39:12.168Z,9.10
2022-12-18T15:41:40.133Z,9.87
2022-12-18T15:44:22.956Z,3.67
2022-12-18T15:46:50.950Z,13.33
2022-12-18T15:49:18.917Z,5.83
2022-12-18T15:51:54.329Z,5.93
2022-12-18T15:54:43.619Z,6.67
2022-12-18T15:57:25.999Z,9.23
2022-12-18T15:59:55.132Z,4.23
2022-12-18T16:02:23.926Z,2.20
2022-12-18T16:04:52.303Z,4.73
2022-12-18T16:07:23.024Z,2.27
2022-12-18T16:09:55.478Z,2.57
2022-12-18T16:12:25.184Z,3.03
2022-12-18T16:14:53.102Z,3.00
2022-12-18T16:17:23.590Z,5.00
2022-12-18T16:19:51.648Z,6.37
2022-12-18T16:22:23.041Z,2.93
2022-12-18T16:24:51.190Z,1.47
2022-12-18T16:27:20.558Z,1.20
2022-12-18T16:29:48.444Z,1.37
2022-12-18T16:32:17.459Z,6.50
2022-12-18T16:34:45.524Z,0.80
2022-12-18T16:37:14.460Z,10.60
2022-12-18T16:39:42.396Z,2.80
2022-12-18T16:42:15.369Z,2.47
2022-12-18T16:44:45.068Z,12.00
2022-12-18T16:47:15.044Z,1.90
2022-12-18T16:49:43.484Z,1.60
2022-12-18T16:52:11.452Z,1.83
2022-12-18T16:54:39.292Z,1.57
2022-12-18T16:57:07.202Z,3.60
2022-12-18T16:59:38.152Z,5.53
2022-12-18T17:02:07.967Z,3.70
2022-12-18T17:04:36.103Z,3.27
2022-12-18T17:07:04.678Z,3.30
2022-12-18T17:09:32.570Z,2.87
2022-12-18T17:12:03.640Z,3.40
2022-12-18T17:14:32.811Z,1.77
2022-12-18T17:17:21.012Z,6.83
2022-12-18T17:19:50.366Z,0.80
2022-12-18T17:22:18.297Z,2.17
2022-12-18T17:24:46.195Z,9.80
2022-12-18T17:27:15.370Z,3.57
2022-12-18T17:29:47.779Z,4.17
2022-12-18T17:32:16.235Z,2.20
2022-12-18T17:34:44.154Z,1.63
2022-12-18T17:37:13.526Z,1.23
2022-12-18T17:39:42.055Z,0.90
2022-12-18T17:42:15.200Z,3.13
2022-12-18T17:44:44.081Z,2.43
2022-12-18T17:47:13.156Z,1.13
2022-12-18T17:49:41.292Z,2.50
2022-12-18T17:52:09.193Z,1.23
2022-12-18T17:54:41.371Z,1.70
2022-12-18T17:57:09.379Z,0.90
2022-12-18T17:59:37.395Z,0.93
2022-12-18T18:02:05.431Z,1.60
2022-12-18T18:04:33.644Z,1.40
2022-12-18T18:07:01.751Z,1.20
2022-12-18T18:09:29.735Z,8.03
2022-12-18T18:12:16.632Z,2.70
2022-12-18T18:14:47.844Z,1.40
2022-12-18T18:17:16.047Z,1.50
2022-12-18T18:19:48.021Z,6.20
2022-12-18T18:22:17.788Z,1.43
2022-12-18T18:24:46.931Z,2.40
2022-12-18T18:27:16.363Z,3.70
2022-12-18T18:29:44.737Z,2.83
2022-12-18T18:32:12.684Z,2.60
2022-12-18T18:34:43.135Z,4.03
2022-12-18T18:37:11.038Z,2.40
2022-12-18T18:39:39.222Z,3.00
2022-12-18T18:42:07.230Z,2.97
2022-12-18T18:44:36.551Z,7.07
2022-12-18T18:47:06.943Z,10.40
2022-12-18T18:49:37.582Z,4.77
2022-12-18T18:52:07.212Z,4.03
2022-12-18T18:54:35.302Z,3.53
2022-12-18T18:57:19.848Z,4.00
2022-12-18T18:59:50.167Z,1.10
2022-12-18T19:02:18.529Z,3.13
2022-12-18T19:04:47.004Z,3.17
2022-12-18T19:07:16.443Z,2.00
2022-12-18T19:09:57.325Z,1.57
2022-12-18T19:12:44.600Z,3.43
2022-12-18T19:15:13.819Z,3.47
2022-12-18T19:17:42.300Z,2.57
2022-12-18T19:20:15.207Z,0.70
2022-12-18T19:22:43.394Z,1.13
2022-12-18T19:25:13.981Z,2.67
2022-12-18T19:27:41.929Z,3.27
2022-12-18T19:30:11.556Z,1.87
2022-12-18T19:32:40.927Z,1.50
2022-12-18T19:35:10.689Z,3.30
2022-12-18T19:37:38.617Z,1.50
2022-12-18T19:40:12.107Z,2.47
2022-12-18T19:42:41.908Z,4.77
2022-12-18T19:45:10.743Z,3.87
2022-12-18T19:47:39.973Z,3.30
2022-12-18T19:50:09.417Z,1.10
2022-12-18T19:52:37.600Z,3.83
2022-12-18T19:55:06.171Z,2.20
2022-12-18T19:57:34.848Z,1.40
2022-12-18T20:00:02.776Z,2.17
2022-12-18T20:02:31.256Z,1.87
2022-12-18T20:05:00.793Z,6.53
2022-12-18T20:07:28.763Z,2.20
2022-12-18T20:10:02.615Z,5.03
2022-12-18T20:12:33.626Z,4.07
2022-12-18T20:15:01.489Z,6.50
2022-12-18T20:17:29.357Z,3.07
2022-12-18T20:19:57.604Z,3.27
2022-12-18T20:22:27.233Z,3.37
2022-12-18T20:24:55.151Z,4.20
2022-12-18T20:27:23.127Z,1.80
2022-12-18T20:29:52.031Z,2.87
2022-12-18T20:32:20.177Z,1.13
2022-12-18T20:34:48.368Z,1.30
2022-12-18T20:37:16.664Z,1.80
2022-12-18T20:39:48.918Z,1.47
2022-12-18T20:42:17.379Z,1.40
2022-12-18T20:44:45.912Z,1.87
2022-12-18T20:47:13.920Z,5.43
2022-12-18T20:49:44.853Z,3.30
2022-12-18T20:52:13.879Z,3.00
2022-12-18T20:54:41.793Z,7.00
2022-12-18T20:57:11.102Z,1.60
2022-12-18T20:59:42.078Z,2.30
2022-12-18T21:02:14.490Z,5.13
2022-12-18T21:04:42.570Z,6.67
2022-12-18T21:07:10.461Z,2.40
2022-12-18T21:09:38.697Z,4.03
2022-12-18T21:12:24.844Z,1.23
2022-12-18T21:14:54.096Z,2.17
2022-12-18T21:17:21.964Z,1.13
2022-12-18T21:19:49.844Z,1.73
2022-12-18T21:22:18.078Z,2.30
2022-12-18T21:24:46.236Z,1.00
2022-12-18T21:27:17.682Z,1.63
2022-12-18T21:29:49.882Z,4.63
2022-12-18T21:32:21.090Z,0.90
2022-12-18T21:34:52.102Z,3.83
2022-12-18T21:37:20.030Z,2.47
2022-12-18T21:39:48.072Z,1.97
2022-12-18T21:42:33.535Z,4.00
2022-12-18T21:45:01.420Z,1.00
2022-12-18T21:47:30.688Z,2.83
2022-12-18T21:49:58.647Z,4.33
2022-12-18T21:52:31.911Z,4.30
2022-12-18T21:55:06.640Z,3.00
2022-12-18T21:57:36.167Z,3.10
2022-12-18T22:00:05.143Z,1.77
2022-12-18T22:02:34.478Z,1.87
2022-12-18T22:05:02.515Z,2.73
2022-12-18T22:07:30.640Z,1.37
2022-12-18T22:09:58.683Z,3.30
2022-12-18T22:12:43.192Z,2.20
2022-12-18T22:15:12.003Z,1.43
2022-12-18T22:17:43.669Z,1.57
2022-12-18T22:20:14.134Z,1.00
2022-12-18T22:22:42.034Z,1.03
2022-12-18T22:25:10.858Z,2.07
2022-12-18T22:27:38.828Z,1.80
2022-12-18T22:30:06.934Z,0.83
2022-12-18T22:32:35.134Z,2.67
2022-12-18T22:35:08.325Z,0.50
2022-12-18T22:37:38.478Z,2.37
2022-12-18T22:40:07.626Z,0.77
2022-12-18T22:42:36.621Z,0.77
2022-12-18T22:45:04.861Z,0.53
2022-12-18T22:47:32.760Z,0.60
2022-12-18T22:50:00.632Z,0.43
2022-12-18T22:52:29.917Z,0.60
2022-12-18T22:54:57.798Z,0.70
2022-12-18T22:57:25.799Z,0.50
2022-12-18T22:59:53.682Z,1.77
2022-12-18T23:02:21.684Z,0.73
2022-12-18T23:04:49.764Z,0.97
2022-12-18T23:07:17.772Z,0.70
2022-12-18T23:09:47.091Z,1.47
2022-12-18T23:12:21.322Z,0.57
2022-12-18T23:14:49.394Z,2.37
2022-12-18T23:17:17.247Z,0.57
2022-12-18T23:19:48.983Z,1.23
2022-12-18T23:22:17.290Z,0.60
2022-12-18T23:24:46.536Z,1.03
2022-12-18T23:27:14.408Z,0.80
2022-12-18T23:29:42.289Z,1.50
2022-12-18T23:32:11.419Z,1.43
2022-12-18T23:34:39.349Z,1.17
2022-12-18T23:37:07.254Z,3.90
2022-12-18T23:39:35.134Z,2.33
2022-12-18T23:42:04.502Z,1.47
2022-12-18T23:44:32.357Z,3.87
2022-12-18T23:47:00.224Z,1.50
2022-12-18T23:49:28.218Z,1.97
2022-12-18T23:51:56.358Z,3.30
2022-12-18T23:54:32.670Z,4.67
2022-12-18T23:57:01.423Z,1.77
2022-12-18T23:59:30.765Z,2.40
